Time;durP1;ratioP1;P1;durP2;ratioP2;P2;SDS_P1;SDS_P2;PMS_P1;PMS_P2;Temp;Humidity;BMP_temperature;BMP_pressure;BME280_temperature;BME280_humidity;BME280_pressure;Samples;Min_cycle;Max_cycle;Signal;HPM_P1;HPM_P2
2021/04/22 00:02:04;;;;;;;;;14.25;13.00;;;;;;;;5032685;28;11622;-83
2021/04/22 00:04:32;;;;;;;;;23.00;18.00;;;;;;;;5023655;28;11578;-86
2021/04/22 00:06:59;;;;;;;;;18.00;14.25;;;;;;;;5025500;28;11667;-86
2021/04/22 00:09:26;;;;;;;;;12.75;12.75;;;;;;;;5024835;28;11550;-84
2021/04/22 00:11:55;;;;;;;;;11.50;11.50;;;;;;;;5035595;28;11586;-83
2021/04/22 00:14:22;;;;;;;;;15.75;15.75;;;;;;;;5027248;28;11582;-82
2021/04/22 00:16:51;;;;;;;;;21.50;19.50;;;;;;;;5027396;28;11561;-82
2021/04/22 00:19:18;;;;;;;;;20.00;11.75;;;;;;;;5025336;28;11616;-83
2021/04/22 00:21:45;;;;;;;;;24.75;20.50;;;;;;;;5028953;28;11603;-85
2021/04/22 00:24:12;;;;;;;;;12.00;12.00;;;;;;;;5023481;28;11679;-84
2021/04/22 00:26:39;;;;;;;;;23.25;21.50;;;;;;;;5026189;28;11573;-83
2021/04/22 00:29:06;;;;;;;;;16.00;13.75;;;;;;;;5026464;28;11561;-84
2021/04/22 00:31:32;;;;;;;;;14.75;10.75;;;;;;;;5023869;28;11487;-82
2021/04/22 00:34:00;;;;;;;;;11.75;11.75;;;;;;;;5028952;28;11501;-87
2021/04/22 00:36:27;;;;;;;;;14.50;11.75;;;;;;;;5030009;28;11748;-84
2021/04/22 00:38:54;;;;;;;;;10.75;10.75;;;;;;;;5028766;28;11539;-83
2021/04/22 00:41:21;;;;;;;;;14.50;11.75;;;;;;;;5024764;28;11529;-85
2021/04/22 00:43:48;;;;;;;;;16.25;11.00;;;;;;;;5027773;28;11547;-85
2021/04/22 00:46:15;;;;;;;;;9.75;7.00;;;;;;;;5014393;28;12310;-86
2021/04/22 00:48:42;;;;;;;;;10.00;10.00;;;;;;;;5025252;28;11515;-85
2021/04/22 00:51:10;;;;;;;;;15.25;13.75;;;;;;;;5024088;28;11579;-87
2021/04/22 00:53:37;;;;;;;;;15.50;10.75;;;;;;;;5022462;28;11536;-85
2021/04/22 00:56:04;;;;;;;;;13.00;10.50;;;;;;;;5025444;28;11672;-87
2021/04/22 00:58:31;;;;;;;;;13.50;10.75;;;;;;;;5024174;28;11615;-90
2021/04/22 01:01:00;;;;;;;;;19.00;14.50;;;;;;;;5021854;28;11664;-88
2021/04/22 01:03:29;;;;;;;;;15.00;12.75;;;;;;;;5021215;28;12550;-83
2021/04/22 01:05:58;;;;;;;;;17.75;13.75;;;;;;;;5022801;28;11583;-85
2021/04/22 01:08:26;;;;;;;;;13.50;11.25;;;;;;;;5024769;28;11642;-82
2021/04/22 01:10:54;;;;;;;;;14.50;13.25;;;;;;;;5022940;28;11653;-82
2021/04/22 01:13:21;;;;;;;;;15.50;14.50;;;;;;;;5023366;28;11580;-83
2021/04/22 01:15:48;;;;;;;;;10.75;10.75;;;;;;;;5021992;28;11622;-83
2021/04/22 01:18:15;;;;;;;;;7.75;6.00;;;;;;;;5023996;28;11620;-82
2021/04/22 01:20:44;;;;;;;;;11.75;11.75;;;;;;;;5020871;28;11676;-83
2021/04/22 01:23:13;;;;;;;;;12.25;10.50;;;;;;;;5020246;28;11663;-87
2021/04/22 01:25:42;;;;;;;;;14.25;10.25;;;;;;;;5018771;28;11602;-84
2021/04/22 01:28:10;;;;;;;;;13.75;13.75;;;;;;;;5024047;28;12465;-83
2021/04/22 01:30:39;;;;;;;;;11.50;11.50;;;;;;;;5022688;28;11536;-86
2021/04/22 01:33:07;;;;;;;;;11.00;9.25;;;;;;;;5025554;28;11588;-88
2021/04/22 01:35:36;;;;;;;;;12.00;10.50;;;;;;;;5024443;28;11560;-86
2021/04/22 01:38:03;;;;;;;;;16.75;10.25;;;;;;;;5020321;28;11685;-85
2021/04/22 01:40:31;;;;;;;;;17.75;13.25;;;;;;;;5021997;28;11715;-86
2021/04/22 01:42:59;;;;;;;;;12.50;10.00;;;;;;;;5022471;28;11725;-84
2021/04/22 01:45:26;;;;;;;;;14.00;10.00;;;;;;;;5021786;28;11599;-85
2021/04/22 01:47:53;;;;;;;;;16.75;14.25;;;;;;;;5025645;28;11549;-82
2021/04/22 01:50:23;;;;;;;;;10.50;10.50;;;;;;;;5024312;28;11725;-83
2021/04/22 01:52:51;;;;;;;;;12.25;9.25;;;;;;;;5021096;28;11829;-84
2021/04/22 01:55:21;;;;;;;;;10.25;8.50;;;;;;;;5020569;28;11599;-83
2021/04/22 01:57:50;;;;;;;;;9.00;9.00;;;;;;;;5023197;28;11580;-84
2021/04/22 02:00:20;;;;;;;;;14.50;8.00;;;;;;;;5022602;28;12332;-85
2021/04/22 02:02:47;;;;;;;;;12.00;9.00;;;;;;;;5024721;28;11623;-83
2021/04/22 02:05:15;;;;;;;;;11.00;11.00;;;;;;;;5026112;28;11542;-86
2021/04/22 02:07:42;;;;;;;;;14.25;9.25;;;;;;;;5023017;28;11649;-85
2021/04/22 02:10:11;;;;;;;;;11.75;9.00;;;;;;;;5023219;28;11566;-85
2021/04/22 02:12:38;;;;;;;;;11.00;9.00;;;;;;;;5023456;28;12411;-87
2021/04/22 02:15:10;;;;;;;;;10.25;9.25;;;;;;;;5007548;28;11622;-86
2021/04/22 02:17:37;;;;;;;;;7.00;7.00;;;;;;;;5023333;28;11588;-88
2021/04/22 02:20:06;;;;;;;;;11.25;10.00;;;;;;;;5021915;28;11581;-86
2021/04/22 02:22:33;;;;;;;;;10.75;10.75;;;;;;;;5014195;28;11562;-87
2021/04/22 02:24:59;;;;;;;;;10.25;8.50;;;;;;;;5022633;28;11787;-84
2021/04/22 02:27:26;;;;;;;;;9.50;5.50;;;;;;;;5022352;28;11552;-83
2021/04/22 02:29:53;;;;;;;;;8.00;5.50;;;;;;;;5022783;28;11603;-83
2021/04/22 02:32:21;;;;;;;;;9.50;6.00;;;;;;;;5024206;28;12452;-83
2021/04/22 02:34:48;;;;;;;;;13.50;9.50;;;;;;;;5023514;28;11669;-87
2021/04/22 02:37:15;;;;;;;;;10.00;7.50;;;;;;;;5014255;28;11591;-86
2021/04/22 02:39:42;;;;;;;;;3.00;3.00;;;;;;;;5021866;28;11664;-84
2021/04/22 02:42:10;;;;;;;;;11.00;6.00;;;;;;;;5023694;28;11681;-87
2021/04/22 02:44:37;;;;;;;;;10.00;7.00;;;;;;;;5022554;28;11670;-86
2021/04/22 02:47:04;;;;;;;;;12.75;9.50;;;;;;;;5023446;28;11567;-85
2021/04/22 02:49:32;;;;;;;;;12.00;9.25;;;;;;;;5022896;28;12376;-86
2021/04/22 02:51:59;;;;;;;;;13.25;8.50;;;;;;;;5018138;28;11688;-86
2021/04/22 02:54:25;;;;;;;;;9.00;6.00;;;;;;;;5022218;28;11566;-83
2021/04/22 02:56:52;;;;;;;;;9.00;6.50;;;;;;;;5022149;28;11676;-83
2021/04/22 02:59:19;;;;;;;;;9.50;7.25;;;;;;;;5023636;28;11674;-83
2021/04/22 03:01:46;;;;;;;;;9.75;7.25;;;;;;;;5021831;28;11570;-84
2021/04/22 03:04:13;;;;;;;;;8.25;8.25;;;;;;;;5020408;28;11767;-84
2021/04/22 03:06:41;;;;;;;;;7.25;5.75;;;;;;;;5024104;28;11547;-84
2021/04/22 03:09:08;;;;;;;;;9.25;6.75;;;;;;;;5014033;28;11553;-84
2021/04/22 03:11:35;;;;;;;;;8.75;6.00;;;;;;;;5023085;28;11624;-84
2021/04/22 03:14:02;;;;;;;;;10.00;8.25;;;;;;;;5024280;28;11567;-81
2021/04/22 03:16:29;;;;;;;;;9.50;8.25;;;;;;;;5024335;28;11585;-83
2021/04/22 03:18:56;;;;;;;;;0.00;0.00;;;;;;;;5026604;28;11681;-82
2021/04/22 03:21:23;;;;;;;;;5.75;3.75;;;;;;;;5021598;28;11519;-84
2021/04/22 03:23:51;;;;;;;;;9.75;4.75;;;;;;;;5023815;28;11521;-84
2021/04/22 03:26:17;;;;;;;;;7.50;6.00;;;;;;;;5022869;28;11693;-84
2021/04/22 03:28:44;;;;;;;;;9.75;7.50;;;;;;;;5027013;28;11657;-84
2021/04/22 03:31:11;;;;;;;;;5.25;5.25;;;;;;;;5025913;28;11503;-85
2021/04/22 03:33:38;;;;;;;;;5.25;5.25;;;;;;;;5027259;28;11596;-83
2021/04/22 03:36:07;;;;;;;;;4.00;4.00;;;;;;;;5024900;28;11566;-82
2021/04/22 03:38:34;;;;;;;;;5.50;5.50;;;;;;;;5034007;28;11614;-84
2021/04/22 03:41:02;;;;;;;;;4.25;4.25;;;;;;;;5029776;28;11539;-85
2021/04/22 03:43:29;;;;;;;;;8.00;5.00;;;;;;;;5025481;28;11565;-86
2021/04/22 03:45:57;;;;;;;;;6.00;6.00;;;;;;;;5031130;28;11559;-84
2021/04/22 03:48:24;;;;;;;;;4.75;4.75;;;;;;;;5032362;28;12259;-86
2021/04/22 03:50:51;;;;;;;;;8.00;5.50;;;;;;;;5028065;28;11554;-84
2021/04/22 03:53:18;;;;;;;;;5.25;5.25;;;;;;;;5017025;28;11565;-85
2021/04/22 03:55:45;;;;;;;;;4.75;2.00;;;;;;;;5028145;28;11570;-84
2021/04/22 03:58:13;;;;;;;;;4.75;2.75;;;;;;;;5026804;28;11578;-85
2021/04/22 04:00:40;;;;;;;;;4.25;4.25;;;;;;;;5024327;28;12579;-85
2021/04/22 04:03:07;;;;;;;;;8.50;6.00;;;;;;;;5024772;28;11592;-83
2021/04/22 04:05:34;;;;;;;;;8.00;6.00;;;;;;;;5013685;28;11549;-82
2021/04/22 04:08:01;;;;;;;;;4.25;4.25;;;;;;;;5021326;28;11580;-83
2021/04/22 04:10:28;;;;;;;;;4.00;2.00;;;;;;;;5023938;28;11558;-89
2021/04/22 04:12:55;;;;;;;;;5.25;4.75;;;;;;;;5026716;28;12421;-85
2021/04/22 04:15:23;;;;;;;;;3.75;3.75;;;;;;;;5026696;28;11568;-82
2021/04/22 04:17:50;;;;;;;;;5.00;5.00;;;;;;;;5020883;28;11647;-83
2021/04/22 04:20:18;;;;;;;;;5.75;2.50;;;;;;;;5024568;28;11636;-78
2021/04/22 04:22:46;;;;;;;;;8.75;4.25;;;;;;;;5026674;28;11555;-80
2021/04/22 04:25:14;;;;;;;;;6.50;5.25;;;;;;;;5025373;28;11536;-82
2021/04/22 04:27:41;;;;;;;;;2.75;2.75;;;;;;;;5024807;28;11523;-80
2021/04/22 04:30:11;;;;;;;;;3.50;3.50;;;;;;;;5023089;28;12063;-81
2021/04/22 04:32:39;;;;;;;;;3.00;3.00;;;;;;;;5012082;28;11554;-80
2021/04/22 04:35:08;;;;;;;;;5.50;5.00;;;;;;;;5029100;28;11680;-80
2021/04/22 04:37:35;;;;;;;;;4.75;2.00;;;;;;;;5032389;28;11562;-82
2021/04/22 04:40:03;;;;;;;;;5.00;5.00;;;;;;;;5020384;28;11586;-81
2021/04/22 04:42:30;;;;;;;;;5.75;5.00;;;;;;;;5025888;28;12468;-81
2021/04/22 04:44:58;;;;;;;;;8.50;5.00;;;;;;;;5023911;28;11546;-82
2021/04/22 04:47:25;;;;;;;;;5.75;5.75;;;;;;;;5025862;28;11552;-83
2021/04/22 04:49:52;;;;;;;;;4.25;4.25;;;;;;;;5014950;28;11693;-81
2021/04/22 04:52:19;;;;;;;;;2.00;2.00;;;;;;;;5025470;28;11649;-82
2021/04/22 04:54:46;;;;;;;;;5.00;5.00;;;;;;;;5022081;28;11541;-82
2021/04/22 04:57:13;;;;;;;;;6.00;4.75;;;;;;;;5024861;28;11586;-85
2021/04/22 04:59:40;;;;;;;;;4.75;4.75;;;;;;;;5026803;28;11551;-84
2021/04/22 05:02:07;;;;;;;;;5.50;5.50;;;;;;;;5023869;28;12551;-83
2021/04/22 05:04:34;;;;;;;;;2.00;2.00;;;;;;;;5025711;28;12338;-82
2021/04/22 05:07:03;;;;;;;;;5.00;5.00;;;;;;;;5021388;28;11560;-85
2021/04/22 05:09:30;;;;;;;;;3.50;3.50;;;;;;;;5026836;28;11615;-82
2021/04/22 05:11:57;;;;;;;;;3.50;3.50;;;;;;;;5022308;28;11601;-83
2021/04/22 05:14:24;;;;;;;;;4.25;4.25;;;;;;;;5025666;28;11708;-82
2021/04/22 05:16:51;;;;;;;;;4.50;4.50;;;;;;;;5034387;28;11546;-82
2021/04/22 05:19:18;;;;;;;;;3.00;2.50;;;;;;;;5032839;28;11550;-82
2021/04/22 05:21:45;;;;;;;;;5.50;5.50;;;;;;;;5024058;28;11584;-83
2021/04/22 05:24:13;;;;;;;;;4.00;4.00;;;;;;;;5025205;28;11581;-81
2021/04/22 05:26:40;;;;;;;;;5.00;5.00;;;;;;;;5026249;28;11615;-83
2021/04/22 05:29:07;;;;;;;;;4.50;4.50;;;;;;;;5024289;28;11571;-82
2021/04/22 05:31:34;;;;;;;;;4.25;4.00;;;;;;;;5024418;28;11475;-81
2021/04/22 05:34:01;;;;;;;;;5.00;5.00;;;;;;;;5023299;28;11547;-94
2021/04/22 05:36:28;;;;;;;;;9.00;7.50;;;;;;;;5019514;28;11560;-84
2021/04/22 05:38:55;;;;;;;;;4.00;4.00;;;;;;;;5032695;28;11606;-83
2021/04/22 05:41:24;;;;;;;;;5.00;5.00;;;;;;;;5022478;28;11619;-75
2021/04/22 05:43:50;;;;;;;;;1.00;1.00;;;;;;;;5024285;28;11667;-79
2021/04/22 05:46:17;;;;;;;;;8.00;5.75;;;;;;;;5020056;28;11569;-81
2021/04/22 05:48:44;;;;;;;;;6.00;5.00;;;;;;;;5024601;28;12514;-82
2021/04/22 05:51:11;;;;;;;;;9.25;6.00;;;;;;;;5022399;28;11553;-79
2021/04/22 05:53:38;;;;;;;;;7.75;5.50;;;;;;;;5010269;28;11580;-81
2021/04/22 05:56:05;;;;;;;;;5.00;5.00;;;;;;;;5022877;28;11712;-83
2021/04/22 05:58:33;;;;;;;;;6.25;6.25;;;;;;;;5020093;28;11690;-82
2021/04/22 06:01:00;;;;;;;;;5.25;5.25;;;;;;;;5023588;28;11610;-84
2021/04/22 06:03:27;;;;;;;;;4.00;4.00;;;;;;;;5023571;28;11560;-79
2021/04/22 06:05:54;;;;;;;;;8.00;4.00;;;;;;;;5023765;28;11600;-83
2021/04/22 06:08:21;;;;;;;;;5.50;5.50;;;;;;;;5021609;28;11594;-82
2021/04/22 06:10:48;;;;;;;;;9.00;9.00;;;;;;;;5020864;28;11600;-84
2021/04/22 06:13:15;;;;;;;;;6.00;6.00;;;;;;;;5023456;28;11670;-79
2021/04/22 06:15:43;;;;;;;;;6.50;6.50;;;;;;;;5022888;28;11581;-78
2021/04/22 06:18:10;;;;;;;;;5.25;3.50;;;;;;;;5023443;28;11701;-76
2021/04/22 06:20:36;;;;;;;;;7.00;7.00;;;;;;;;5017486;28;11626;-73
2021/04/22 06:23:03;;;;;;;;;6.00;6.00;;;;;;;;5019937;28;11691;-74
2021/04/22 06:25:30;;;;;;;;;4.75;4.75;;;;;;;;5019723;28;11685;-70
2021/04/22 06:27:58;;;;;;;;;8.75;8.75;;;;;;;;5022552;28;11631;-70
2021/04/22 06:30:27;;;;;;;;;5.50;5.50;;;;;;;;5021819;28;11494;-71
2021/04/22 06:32:55;;;;;;;;;9.50;9.00;;;;;;;;5021748;28;11677;-74
2021/04/22 06:35:22;;;;;;;;;8.00;8.00;;;;;;;;5021897;28;11562;-73
2021/04/22 06:37:49;;;;;;;;;7.50;7.50;;;;;;;;5020003;28;11691;-72
2021/04/22 06:40:18;;;;;;;;;11.00;9.25;;;;;;;;5022573;28;11578;-70
2021/04/22 06:42:45;;;;;;;;;9.75;9.00;;;;;;;;5022100;28;11563;-70
2021/04/22 06:45:15;;;;;;;;;9.75;9.75;;;;;;;;5015377;28;11584;-73
2021/04/22 06:47:43;;;;;;;;;15.25;10.50;;;;;;;;5019992;28;11631;-71
2021/04/22 06:50:15;;;;;;;;;18.50;10.75;;;;;;;;5020823;28;11709;-72
2021/04/22 06:52:42;;;;;;;;;17.00;12.75;;;;;;;;5010382;28;11638;-74
2021/04/22 06:55:13;;;;;;;;;10.00;9.00;;;;;;;;5020532;28;11700;-74
2021/04/22 06:57:40;;;;;;;;;13.25;13.00;;;;;;;;5022259;28;11560;-72
2021/04/22 07:00:09;;;;;;;;;13.75;11.75;;;;;;;;5018203;28;11634;-73
2021/04/22 07:02:37;;;;;;;;;17.50;17.50;;;;;;;;5018172;28;11769;-74
2021/04/22 07:05:04;;;;;;;;;15.00;11.00;;;;;;;;5020057;28;11630;-72
2021/04/22 07:07:32;;;;;;;;;14.00;11.00;;;;;;;;5019462;28;11678;-71
2021/04/22 07:09:59;;;;;;;;;9.75;7.25;;;;;;;;5020371;28;11672;-77
2021/04/22 07:12:26;;;;;;;;;14.50;13.00;;;;;;;;5018826;28;11527;-70
2021/04/22 07:14:54;;;;;;;;;11.25;9.50;;;;;;;;5021646;28;11688;-72
2021/04/22 07:17:21;;;;;;;;;11.00;9.75;;;;;;;;5018688;28;11604;-74
2021/04/22 07:19:49;;;;;;;;;13.25;12.50;;;;;;;;5020709;28;12191;-73
2021/04/22 07:22:17;;;;;;;;;17.50;14.75;;;;;;;;5019456;28;11573;-74
2021/04/22 07:24:45;;;;;;;;;12.00;12.00;;;;;;;;5015551;28;11560;-75
2021/04/22 07:27:12;;;;;;;;;13.50;11.00;;;;;;;;5019707;28;11571;-76
2021/04/22 07:29:44;;;;;;;;;14.75;12.25;;;;;;;;5020490;28;11577;-76
2021/04/22 07:32:12;;;;;;;;;15.50;11.25;;;;;;;;5018226;28;11539;-77
2021/04/22 07:34:39;;;;;;;;;15.25;13.00;;;;;;;;5015014;28;11714;-76
2021/04/22 07:37:06;;;;;;;;;21.75;15.25;;;;;;;;5016357;28;11680;-75
2021/04/22 07:39:33;;;;;;;;;12.25;11.25;;;;;;;;5017433;28;11730;-74
2021/04/22 07:42:01;;;;;;;;;13.75;12.25;;;;;;;;5019899;28;11580;-76
2021/04/22 07:44:28;;;;;;;;;12.00;9.75;;;;;;;;5018748;28;12324;-76
2021/04/22 07:46:55;;;;;;;;;11.00;11.00;;;;;;;;5021064;28;11507;-73
2021/04/22 07:49:22;;;;;;;;;9.75;9.75;;;;;;;;5019557;28;11523;-73
2021/04/22 07:51:49;;;;;;;;;6.50;6.50;;;;;;;;5016784;28;11633;-75
2021/04/22 07:54:16;;;;;;;;;17.75;11.25;;;;;;;;5020724;28;11492;-74
2021/04/22 07:56:43;;;;;;;;;8.75;6.00;;;;;;;;5020254;28;12322;-76
2021/04/22 07:59:11;;;;;;;;;13.75;10.00;;;;;;;;5022193;28;11512;-75
2021/04/22 08:01:38;;;;;;;;;13.75;11.75;;;;;;;;5019200;28;11481;-76
2021/04/22 08:04:05;;;;;;;;;11.25;11.25;;;;;;;;5017427;28;11546;-76
2021/04/22 08:06:33;;;;;;;;;10.00;9.50;;;;;;;;5012302;28;12406;-76
2021/04/22 08:09:00;;;;;;;;;5.00;3.50;;;;;;;;5019779;28;11510;-76
2021/04/22 08:11:27;;;;;;;;;15.50;13.00;;;;;;;;5021764;28;11502;-76
2021/04/22 08:13:54;;;;;;;;;13.00;11.75;;;;;;;;5022806;28;11636;-77
2021/04/22 08:16:22;;;;;;;;;15.75;12.25;;;;;;;;5024852;28;11640;-77
2021/04/22 08:18:52;;;;;;;;;12.00;12.00;;;;;;;;5023903;28;12475;-76
2021/04/22 08:21:19;;;;;;;;;13.25;8.75;;;;;;;;5024058;28;11677;-76
2021/04/22 08:23:46;;;;;;;;;7.50;7.50;;;;;;;;5018484;28;11796;-77
2021/04/22 08:26:16;;;;;;;;;12.50;12.00;;;;;;;;5024310;28;11851;-76
2021/04/22 08:28:44;;;;;;;;;11.50;9.75;;;;;;;;5024874;28;12353;-77
2021/04/22 08:31:18;;;;;;;;;14.25;14.25;;;;;;;;5023088;28;11468;-76
2021/04/22 08:33:47;;;;;;;;;18.50;15.50;;;;;;;;5025133;28;11649;-78
2021/04/22 08:36:14;;;;;;;;;16.75;15.50;;;;;;;;5023424;28;11542;-74
2021/04/22 08:38:41;;;;;;;;;12.75;10.00;;;;;;;;5022842;28;12349;-76
2021/04/22 08:41:08;;;;;;;;;11.75;11.00;;;;;;;;5019784;28;11606;-77
2021/04/22 08:43:35;;;;;;;;;10.75;9.00;;;;;;;;5024139;28;11865;-76
2021/04/22 08:46:02;;;;;;;;;12.00;10.25;;;;;;;;5024600;28;10892;-77
2021/04/22 08:48:29;;;;;;;;;7.50;7.50;;;;;;;;5019947;28;11482;-77
2021/04/22 08:50:57;;;;;;;;;11.25;7.50;;;;;;;;5021891;28;10782;-73
2021/04/22 08:53:29;;;;;;;;;9.75;6.00;;;;;;;;5017878;28;10849;-75
2021/04/22 08:55:56;;;;;;;;;10.50;8.75;;;;;;;;5024271;28;10633;-77
2021/04/22 08:58:23;;;;;;;;;9.00;7.00;;;;;;;;5023437;28;10488;-77
2021/04/22 09:00:52;;;;;;;;;9.75;8.50;;;;;;;;5023364;28;10521;-76
2021/04/22 09:03:19;;;;;;;;;10.00;8.00;;;;;;;;5024432;28;10362;-76
2021/04/22 09:05:47;;;;;;;;;9.00;9.00;;;;;;;;5020794;28;10578;-77
2021/04/22 09:08:16;;;;;;;;;7.00;7.00;;;;;;;;5020511;28;10446;-75
2021/04/22 09:10:43;;;;;;;;;7.00;7.00;;;;;;;;5023133;28;10276;-76
2021/04/22 09:13:15;;;;;;;;;8.25;7.00;;;;;;;;5024053;28;10970;-77
2021/04/22 09:15:43;;;;;;;;;9.00;8.00;;;;;;;;5022639;28;10157;-76
2021/04/22 09:18:13;;;;;;;;;14.00;7.50;;;;;;;;5024076;28;10155;-74
2021/04/22 09:20:43;;;;;;;;;6.25;4.75;;;;;;;;5022413;28;10357;-75
2021/04/22 09:23:21;;;;;;;;;4.00;4.00;;;;;;;;5013838;28;9968;-77
2021/04/22 09:25:55;;;;;;;;;1.00;1.00;;;;;;;;5021147;28;10037;-76
2021/04/22 09:28:22;;;;;;;;;5.00;3.25;;;;;;;;5022571;28;9788;-76
2021/04/22 09:30:49;;;;;;;;;8.00;6.00;;;;;;;;5022044;28;9862;-74
2021/04/22 09:33:24;;;;;;;;;3.00;3.00;;;;;;;;5014365;28;9938;-76
2021/04/22 09:35:51;;;;;;;;;4.75;4.75;;;;;;;;5020833;28;10602;-76
2021/04/22 09:38:20;;;;;;;;;8.50;4.00;;;;;;;;5016479;28;9769;-77
2021/04/22 09:40:49;;;;;;;;;4.00;4.00;;;;;;;;5022108;28;10076;-76
2021/04/22 09:43:16;;;;;;;;;5.50;4.75;;;;;;;;5023645;28;9822;-71
2021/04/22 09:45:43;;;;;;;;;4.25;4.00;;;;;;;;5022395;28;10597;-70
2021/04/22 09:48:16;;;;;;;;;3.25;3.25;;;;;;;;5019332;28;9894;-73
2021/04/22 09:50:44;;;;;;;;;4.00;2.75;;;;;;;;5018583;28;9648;-76
2021/04/22 09:53:14;;;;;;;;;4.25;4.25;;;;;;;;5021831;28;9575;-74
2021/04/22 09:55:43;;;;;;;;;3.75;3.00;;;;;;;;5022399;28;9740;-74
2021/04/22 09:58:11;;;;;;;;;8.50;5.00;;;;;;;;5021782;28;9569;-73
2021/04/22 10:00:39;;;;;;;;;4.75;4.75;;;;;;;;5021876;28;9607;-75
2021/04/22 10:03:09;;;;;;;;;4.50;4.50;;;;;;;;5018638;28;9741;-76
2021/04/22 10:05:38;;;;;;;;;2.00;2.00;;;;;;;;5019090;28;9841;-74
2021/04/22 10:08:07;;;;;;;;;8.75;8.75;;;;;;;;5021682;28;9942;-72
2021/04/22 10:10:35;;;;;;;;;10.25;9.25;;;;;;;;5020581;28;9908;-73
2021/04/22 10:13:06;;;;;;;;;6.50;6.50;;;;;;;;5019388;28;9769;-75
2021/04/22 10:15:33;;;;;;;;;12.75;9.50;;;;;;;;5017018;28;9503;-73
2021/04/22 10:18:01;;;;;;;;;6.00;6.00;;;;;;;;5021606;28;10600;-73
2021/04/22 10:20:30;;;;;;;;;4.00;4.00;;;;;;;;5019543;28;9418;-74
2021/04/22 10:22:57;;;;;;;;;6.00;6.00;;;;;;;;5021981;28;9294;-78
2021/04/22 10:25:26;;;;;;;;;6.33;6.00;;;;;;;;5018477;28;9437;-75
2021/04/22 10:27:53;;;;;;;;;7.67;6.00;;;;;;;;5020981;28;9294;-74
2021/04/22 10:30:24;;;;;;;;;6.67;3.00;;;;;;;;5020493;28;9266;-74
2021/04/22 10:32:52;;;;;;;;;6.33;3.00;;;;;;;;5020484;28;9196;-73
2021/04/22 10:35:20;;;;;;;;;5.00;3.75;;;;;;;;5019773;28;9032;-70
2021/04/22 10:37:50;;;;;;;;;10.00;6.00;;;;;;;;5019240;28;8896;-74
2021/04/22 10:40:19;;;;;;;;;3.25;3.25;;;;;;;;5017002;28;8998;-73
2021/04/22 10:42:46;;;;;;;;;3.00;3.00;;;;;;;;5038517;28;8886;-75
2021/04/22 10:45:16;;;;;;;;;4.50;4.50;;;;;;;;5019810;28;8886;-76
2021/04/22 10:47:44;;;;;;;;;5.00;3.75;;;;;;;;5021976;28;8906;-74
2021/04/22 10:50:17;;;;;;;;;5.75;4.50;;;;;;;;5019753;28;8880;-73
2021/04/22 10:52:46;;;;;;;;;7.75;6.00;;;;;;;;5017065;28;8882;-77
2021/04/22 10:55:17;;;;;;;;;5.25;5.25;;;;;;;;5022291;28;8949;-70
2021/04/22 10:57:45;;;;;;;;;5.50;4.50;;;;;;;;5021370;28;8987;-72
2021/04/22 11:00:14;;;;;;;;;3.50;2.00;;;;;;;;5019665;28;8880;-71
2021/04/22 11:02:44;;;;;;;;;5.00;3.75;;;;;;;;5022176;28;8895;-72
2021/04/22 11:05:23;;;;;;;;;3.00;3.00;;;;;;;;5014406;28;8914;-72
2021/04/22 11:07:58;;;;;;;;;4.25;3.00;;;;;;;;5021507;28;8833;-73
2021/04/22 11:10:33;;;;;;;;;7.00;4.00;;;;;;;;5018430;28;8864;-73
2021/04/22 11:13:10;;;;;;;;;3.00;3.00;;;;;;;;5019798;28;8874;-71
2021/04/22 11:15:37;;;;;;;;;4.50;3.25;;;;;;;;5003185;28;8879;-74
2021/04/22 11:18:10;;;;;;;;;5.00;4.00;;;;;;;;5019553;28;8856;-72
2021/04/22 11:20:41;;;;;;;;;2.75;2.75;;;;;;;;5017517;28;8876;-74
2021/04/22 11:23:15;;;;;;;;;6.00;6.00;;;;;;;;5020076;28;8895;-73
2021/04/22 11:25:49;;;;;;;;;1.00;1.00;;;;;;;;5017587;28;8894;-75
2021/04/22 11:28:17;;;;;;;;;5.25;4.50;;;;;;;;5027667;28;9006;-72
2021/04/22 11:30:44;;;;;;;;;4.50;4.50;;;;;;;;5014604;28;8827;-73
2021/04/22 11:33:13;;;;;;;;;5.50;4.25;;;;;;;;5018075;28;8863;-70
2021/04/22 11:35:40;;;;;;;;;4.75;4.75;;;;;;;;5019004;28;8856;-72
2021/04/22 11:38:09;;;;;;;;;3.00;3.00;;;;;;;;5017165;28;8872;-74
2021/04/22 11:40:40;;;;;;;;;3.50;3.50;;;;;;;;5019435;28;8863;-73
2021/04/22 11:43:18;;;;;;;;;4.00;4.00;;;;;;;;5019119;28;8892;-74
2021/04/22 11:45:48;;;;;;;;;4.25;3.00;;;;;;;;5019604;28;8860;-71
2021/04/22 11:48:16;;;;;;;;;2.00;2.00;;;;;;;;5017247;28;8876;-73
2021/04/22 11:50:46;;;;;;;;;3.00;3.00;;;;;;;;5020074;28;8876;-73
2021/04/22 11:53:14;;;;;;;;;3.00;3.00;;;;;;;;5020778;28;9528;-74
2021/04/22 11:55:46;;;;;;;;;5.00;3.00;;;;;;;;5017872;28;8907;-72
2021/04/22 11:58:18;;;;;;;;;3.00;3.00;;;;;;;;5023601;28;9081;-71
2021/04/22 12:00:47;;;;;;;;;5.50;4.00;;;;;;;;5021153;28;8824;-74
2021/04/22 12:03:19;;;;;;;;;3.00;1.75;;;;;;;;5024056;28;8884;-73
2021/04/22 12:05:47;;;;;;;;;6.50;3.25;;;;;;;;5018326;28;8898;-71
2021/04/22 12:08:15;;;;;;;;;4.00;4.00;;;;;;;;5022261;28;8886;-72
2021/04/22 12:10:48;;;;;;;;;5.75;4.00;;;;;;;;5023412;28;8883;-73
2021/04/22 12:13:18;;;;;;;;;3.00;3.00;;;;;;;;5022818;28;9618;-71
2021/04/22 12:15:47;;;;;;;;;5.25;4.50;;;;;;;;5019234;28;8895;-72
2021/04/22 12:18:22;;;;;;;;;3.00;3.00;;;;;;;;5021071;28;8910;-71
2021/04/22 12:20:51;;;;;;;;;5.00;4.50;;;;;;;;5022774;28;8856;-73
2021/04/22 12:23:28;;;;;;;;;4.75;4.75;;;;;;;;5019525;28;9030;-73
2021/04/22 12:25:55;;;;;;;;;5.00;4.25;;;;;;;;5018615;28;8888;-72
2021/04/22 12:28:22;;;;;;;;;4.50;4.50;;;;;;;;5024576;28;9006;-72
2021/04/22 12:30:50;;;;;;;;;5.75;4.50;;;;;;;;5020417;28;8843;-73
2021/04/22 12:33:21;;;;;;;;;7.00;4.00;;;;;;;;5021411;28;8844;-74
2021/04/22 12:35:54;;;;;;;;;7.75;5.25;;;;;;;;5019659;28;8863;-74
2021/04/22 12:38:24;;;;;;;;;6.50;5.00;;;;;;;;5023555;28;8860;-71
2021/04/22 12:40:56;;;;;;;;;5.50;4.75;;;;;;;;5021537;28;8895;-74
2021/04/22 12:43:24;;;;;;;;;5.50;4.25;;;;;;;;5023408;28;8894;-72
2021/04/22 12:45:51;;;;;;;;;3.25;3.25;;;;;;;;5022446;28;8864;-72
2021/04/22 12:48:18;;;;;;;;;3.00;3.00;;;;;;;;5022241;28;8868;-73
2021/04/22 12:50:48;;;;;;;;;2.25;1.25;;;;;;;;5022688;28;8880;-73
2021/04/22 12:53:18;;;;;;;;;4.00;4.00;;;;;;;;5019447;28;8886;-73
2021/04/22 12:55:47;;;;;;;;;4.33;3.00;;;;;;;;5021824;28;8868;-72
2021/04/22 12:58:15;;;;;;;;;3.75;3.75;;;;;;;;5020383;28;9774;-73
2021/04/22 13:00:45;;;;;;;;;5.25;4.00;;;;;;;;5019987;28;8946;-74
2021/04/22 13:03:23;;;;;;;;;2.75;1.75;;;;;;;;5015498;28;8957;-73
2021/04/22 13:05:53;;;;;;;;;3.00;3.00;;;;;;;;5021766;28;8879;-71
2021/04/22 13:08:21;;;;;;;;;4.00;4.00;;;;;;;;5020702;28;8986;-73
2021/04/22 13:10:52;;;;;;;;;4.75;4.25;;;;;;;;5020559;28;8864;-72
2021/04/22 13:13:23;;;;;;;;;2.75;2.75;;;;;;;;5022847;28;8995;-71
2021/04/22 13:15:50;;;;;;;;;6.00;4.00;;;;;;;;5022924;28;8880;-73
2021/04/22 13:18:19;;;;;;;;;5.50;2.50;;;;;;;;5019919;28;8884;-73
2021/04/22 13:20:47;;;;;;;;;4.00;3.25;;;;;;;;5017247;28;8940;-74
2021/04/22 13:23:29;;;;;;;;;4.00;4.00;;;;;;;;5021070;28;8985;-72
2021/04/22 13:25:56;;;;;;;;;4.25;4.25;;;;;;;;5022118;28;8895;-74
2021/04/22 13:28:24;;;;;;;;;3.00;3.00;;;;;;;;5020828;28;8870;-74
2021/04/22 13:30:52;;;;;;;;;4.50;3.75;;;;;;;;5021769;28;8843;-73
2021/04/22 13:33:25;;;;;;;;;5.00;3.50;;;;;;;;5021393;28;8999;-71
2021/04/22 13:36:02;;;;;;;;;3.25;2.75;;;;;;;;5020319;28;9034;-73
2021/04/22 13:38:30;;;;;;;;;5.50;2.75;;;;;;;;5021934;28;8859;-73
2021/04/22 13:41:09;;;;;;;;;3.25;3.25;;;;;;;;5020088;28;8897;-72
2021/04/22 13:43:37;;;;;;;;;4.00;4.00;;;;;;;;5019809;28;8900;-74
2021/04/22 13:46:04;;;;;;;;;3.50;3.50;;;;;;;;5021983;28;8894;-72
2021/04/22 13:48:32;;;;;;;;;5.25;4.50;;;;;;;;5022646;28;9688;-74
2021/04/22 13:51:10;;;;;;;;;5.75;5.50;;;;;;;;5018028;28;9848;-73
2021/04/22 13:53:37;;;;;;;;;5.75;5.75;;;;;;;;5022933;28;8883;-74
2021/04/22 13:56:04;;;;;;;;;5.75;5.25;;;;;;;;5018159;28;8872;-74
2021/04/22 13:58:33;;;;;;;;;4.25;4.25;;;;;;;;5022249;28;8917;-73
2021/04/22 14:01:00;;;;;;;;;4.25;4.25;;;;;;;;5022470;28;8847;-74
2021/04/22 14:03:34;;;;;;;;;5.00;5.00;;;;;;;;5019756;28;8867;-74
2021/04/22 14:06:01;;;;;;;;;5.75;3.00;;;;;;;;5020367;28;8887;-71
2021/04/22 14:08:29;;;;;;;;;3.50;2.75;;;;;;;;5017041;28;8863;-73
2021/04/22 14:11:00;;;;;;;;;5.75;4.50;;;;;;;;5021502;28;8864;-73
2021/04/22 14:13:28;;;;;;;;;3.50;2.50;;;;;;;;5023470;28;8886;-74
2021/04/22 14:15:55;;;;;;;;;5.50;3.75;;;;;;;;5022080;28;9023;-74
2021/04/22 14:18:23;;;;;;;;;3.00;3.00;;;;;;;;5022805;28;8899;-74
2021/04/22 14:20:50;;;;;;;;;7.25;4.25;;;;;;;;5021400;28;8899;-74
2021/04/22 14:23:17;;;;;;;;;2.00;2.00;;;;;;;;5010931;28;8901;-74
2021/04/22 14:25:44;;;;;;;;;3.50;3.25;;;;;;;;5021465;28;8987;-74
2021/04/22 14:28:12;;;;;;;;;3.50;2.00;;;;;;;;5021968;28;8886;-73
2021/04/22 14:30:39;;;;;;;;;4.50;4.50;;;;;;;;5021818;28;8866;-74
2021/04/22 14:33:06;;;;;;;;;3.00;3.00;;;;;;;;5021622;28;8895;-74
2021/04/22 14:35:33;;;;;;;;;3.00;3.00;;;;;;;;5020497;28;8890;-72
2021/04/22 14:38:00;;;;;;;;;4.00;3.00;;;;;;;;5018499;28;9661;-73
2021/04/22 14:40:27;;;;;;;;;4.00;4.00;;;;;;;;5022466;28;8879;-72
2021/04/22 14:42:54;;;;;;;;;5.50;4.00;;;;;;;;5021732;28;8868;-72
2021/04/22 14:45:22;;;;;;;;;3.00;3.00;;;;;;;;5020902;28;8906;-73
2021/04/22 14:47:49;;;;;;;;;6.00;3.00;;;;;;;;5018925;28;9660;-74